createdAt,value
2019-01-17T00:01:20.290Z,45.10
2019-01-17T00:06:52.192Z,45.62
2019-01-17T00:12:24.016Z,45.62
2019-01-17T00:17:46.780Z,45.62
2019-01-17T00:23:04.154Z,45.21
2019-01-17T00:28:33.023Z,45.21
2019-01-17T00:33:54.701Z,45.57
2019-01-17T00:39:11.618Z,45.43
2019-01-17T00:44:33.045Z,45.43
2019-01-17T00:49:51.637Z,45.42
2019-01-17T00:55:16.446Z,44.70
2019-01-17T01:00:45.305Z,44.70
2019-01-17T01:06:08.115Z,45.32
2019-01-17T01:11:30.900Z,45.88
2019-01-17T01:17:30.984Z,45.88
2019-01-17T01:22:53.810Z,45.70
2019-01-17T01:28:15.339Z,45.70
2019-01-17T01:33:30.444Z,45.97
2019-01-17T01:38:51.662Z,45.70
2019-01-17T01:44:04.898Z,45.45
2019-01-17T01:49:28.939Z,46.17
2019-01-17T01:54:32.823Z,46.26
2019-01-17T01:59:36.601Z,46.39
2019-01-17T02:04:40.420Z,46.25
2019-01-17T02:09:44.246Z,46.24
2019-01-17T02:14:48.100Z,46.18
2019-01-17T02:19:51.879Z,46.36
2019-01-17T02:24:55.708Z,46.36
2019-01-17T02:29:59.721Z,45.89
2019-01-17T02:35:03.518Z,46.02
2019-01-17T02:40:08.713Z,46.02
2019-01-17T02:45:13.953Z,45.57
2019-01-17T02:50:17.833Z,45.57
2019-01-17T02:55:21.664Z,46.37
2019-01-17T03:00:25.665Z,45.98
2019-01-17T03:05:29.431Z,45.98
2019-01-17T03:10:33.196Z,46.33
2019-01-17T03:15:36.986Z,45.90
2019-01-17T03:20:40.764Z,45.90
2019-01-17T03:25:44.557Z,46.11
2019-01-17T03:30:48.330Z,45.77
2019-01-17T03:35:52.107Z,45.91
2019-01-17T03:40:55.874Z,46.79
2019-01-17T03:45:59.628Z,46.86
2019-01-17T03:51:03.417Z,46.86
2019-01-17T03:56:07.500Z,46.96
2019-01-17T04:01:11.276Z,46.78
2019-01-17T04:06:15.077Z,46.78
2019-01-17T04:11:18.846Z,46.99
2019-01-17T04:16:22.681Z,47.18
2019-01-17T04:21:26.449Z,46.95
2019-01-17T04:26:30.228Z,47.50
2019-01-17T04:31:34.001Z,47.53
2019-01-17T04:36:37.788Z,47.06
2019-01-17T04:41:41.548Z,47.25
2019-01-17T04:46:45.349Z,47.26
2019-01-17T04:51:49.135Z,47.00
2019-01-17T04:56:52.916Z,47.15
2019-01-17T05:01:56.709Z,46.76
2019-01-17T05:07:00.552Z,46.76
2019-01-17T05:12:04.333Z,46.52
2019-01-17T05:17:08.104Z,46.52
2019-01-17T05:22:11.918Z,46.65
2019-01-17T05:27:15.695Z,46.78
2019-01-17T05:32:19.469Z,46.48
2019-01-17T05:37:23.251Z,46.36
2019-01-17T05:42:27.046Z,46.47
2019-01-17T05:47:30.823Z,46.49
2019-01-17T05:52:34.605Z,46.64
2019-01-17T05:57:38.376Z,46.95
2019-01-17T06:02:42.145Z,46.54
2019-01-17T06:07:45.944Z,46.54
2019-01-17T06:12:50.414Z,46.50
2019-01-17T06:17:54.188Z,46.72
2019-01-17T06:22:57.949Z,46.72
2019-01-17T06:28:01.882Z,46.72
2019-01-17T06:33:05.650Z,46.72
2019-01-17T06:38:09.468Z,46.59
2019-01-17T06:43:13.308Z,46.82
2019-01-17T06:48:17.085Z,46.71
2019-01-17T06:53:20.874Z,46.71
2019-01-17T06:58:24.702Z,46.45
2019-01-17T07:03:28.556Z,46.53
2019-01-17T07:08:32.382Z,46.28
2019-01-17T07:13:36.165Z,46.66
2019-01-17T07:18:39.951Z,46.31
2019-01-17T07:23:43.752Z,46.55
2019-01-17T07:28:47.609Z,46.48
2019-01-17T07:33:51.393Z,46.48
2019-01-17T07:38:55.226Z,46.74
2019-01-17T07:43:59.081Z,46.74
2019-01-17T07:49:02.930Z,46.67
2019-01-17T07:54:06.784Z,47.06
2019-01-17T07:59:10.613Z,46.40
2019-01-17T08:04:14.467Z,39.58
2019-01-17T08:09:18.255Z,40.47
2019-01-17T08:14:22.056Z,40.47
2019-01-17T08:19:25.871Z,44.20
2019-01-17T08:24:29.719Z,44.08
2019-01-17T08:29:33.553Z,44.08
2019-01-17T08:34:37.334Z,37.10
2019-01-17T08:39:41.129Z,36.95
2019-01-17T08:44:44.888Z,36.43
2019-01-17T08:49:48.652Z,36.47
2019-01-17T08:54:52.420Z,36.61
2019-01-17T08:59:56.264Z,36.97
2019-01-17T09:05:00.193Z,36.97
2019-01-17T09:10:04.169Z,37.74
2019-01-17T09:15:09.997Z,37.74
2019-01-17T09:20:14.364Z,37.88
2019-01-17T09:25:18.180Z,38.02
2019-01-17T09:30:21.963Z,38.15
2019-01-17T09:35:25.816Z,38.15
2019-01-17T09:40:29.605Z,38.32
2019-01-17T09:45:33.373Z,39.06
2019-01-17T09:50:37.144Z,39.45
2019-01-17T09:55:40.916Z,39.70
2019-01-17T10:00:44.690Z,39.73
2019-01-17T10:05:48.514Z,40.24
2019-01-17T10:10:52.277Z,40.05
2019-01-17T10:16:40.791Z,40.41
2019-01-17T10:22:27.450Z,40.41
2019-01-17T10:28:09.429Z,40.90
2019-01-17T10:33:47.075Z,40.90
2019-01-17T10:39:28.801Z,41.01
2019-01-17T10:45:01.018Z,41.50
2019-01-17T10:50:35.941Z,41.50
2019-01-17T10:56:09.830Z,41.12
2019-01-17T11:01:53.611Z,41.12
2019-01-17T11:07:29.061Z,41.21
2019-01-17T11:13:11.888Z,41.80
2019-01-17T11:18:57.222Z,41.80
2019-01-17T11:24:20.589Z,42.52
2019-01-17T11:30:05.131Z,43.43
2019-01-17T11:35:47.928Z,43.88
2019-01-17T11:41:23.904Z,43.91
2019-01-17T11:46:55.576Z,43.65
2019-01-17T11:52:31.421Z,44.69
2019-01-17T11:58:20.910Z,43.52
2019-01-17T12:03:46.469Z,44.12
2019-01-17T12:08:50.305Z,43.45
2019-01-17T12:13:54.072Z,43.45
2019-01-17T12:18:57.858Z,44.15
2019-01-17T12:24:01.617Z,44.24
2019-01-17T12:29:05.403Z,44.68
2019-01-17T12:34:09.162Z,44.13
2019-01-17T12:39:13.831Z,44.13
2019-01-17T12:44:17.609Z,44.01
2019-01-17T12:49:21.385Z,44.33
2019-01-17T12:54:25.167Z,44.09
2019-01-17T12:59:28.922Z,43.51
2019-01-17T13:04:32.696Z,44.04
2019-01-17T13:09:36.471Z,38.16
2019-01-17T13:14:40.246Z,38.61
2019-01-17T13:19:44.028Z,38.61
2019-01-17T13:24:47.785Z,38.00
2019-01-17T13:29:51.543Z,34.85
2019-01-17T13:34:55.304Z,35.37
2019-01-17T13:39:59.108Z,35.61
2019-01-17T13:45:03.124Z,35.61
2019-01-17T13:50:07.238Z,36.52
2019-01-17T13:55:11.446Z,37.20
2019-01-17T14:00:17.765Z,38.44
2019-01-17T14:05:21.533Z,39.50
2019-01-17T14:10:25.292Z,39.50
2019-01-17T14:15:29.407Z,39.87
2019-01-17T14:20:33.182Z,39.56
2019-01-17T14:25:36.952Z,40.67
2019-01-17T14:30:40.794Z,40.67
2019-01-17T14:35:44.569Z,41.01
2019-01-17T14:40:48.352Z,41.17
2019-01-17T14:45:52.129Z,40.89
2019-01-17T14:50:55.902Z,41.87
2019-01-17T14:55:59.675Z,42.33
2019-01-17T15:01:03.486Z,42.50
2019-01-17T15:06:07.244Z,42.89
2019-01-17T15:11:11.031Z,42.89
2019-01-17T15:16:14.915Z,43.76
2019-01-17T15:21:18.750Z,43.76
2019-01-17T15:26:22.563Z,44.39
2019-01-17T15:31:26.332Z,44.09
2019-01-17T15:36:30.108Z,44.09
2019-01-17T15:41:33.890Z,43.95
2019-01-17T15:46:37.988Z,44.02
2019-01-17T15:51:41.756Z,44.02
2019-01-17T15:56:45.575Z,43.75
2019-01-17T16:01:49.345Z,43.75
2019-01-17T16:06:53.149Z,44.39
2019-01-17T16:11:56.917Z,44.43
2019-01-17T16:17:00.703Z,44.29
2019-01-17T16:22:04.554Z,44.44
2019-01-17T16:27:09.161Z,44.54
2019-01-17T16:32:12.982Z,44.64
2019-01-17T16:37:16.808Z,45.08
2019-01-17T16:42:20.672Z,44.41
2019-01-17T16:47:24.450Z,44.67
2019-01-17T16:52:28.233Z,44.74
2019-01-17T16:57:32.019Z,44.74
2019-01-17T17:02:35.784Z,44.55
2019-01-17T17:07:39.636Z,44.55
2019-01-17T17:12:43.524Z,43.05
2019-01-17T17:17:47.409Z,43.05
2019-01-17T17:22:51.302Z,42.81
2019-01-17T17:27:55.754Z,42.81
2019-01-17T17:32:59.759Z,42.16
2019-01-17T17:38:03.544Z,42.16
2019-01-17T17:43:07.306Z,42.24
2019-01-17T17:48:11.099Z,42.51
2019-01-17T17:53:15.031Z,42.37
2019-01-17T17:58:18.859Z,42.37
2019-01-17T18:03:22.685Z,42.46
2019-01-17T18:08:26.550Z,42.46
2019-01-17T18:13:30.315Z,42.12
2019-01-17T18:18:34.078Z,42.31
2019-01-17T18:23:37.857Z,41.97
2019-01-17T18:28:41.602Z,42.29
2019-01-17T18:33:45.538Z,42.29
2019-01-17T18:38:49.323Z,42.56
2019-01-17T18:43:53.085Z,41.72
2019-01-17T18:48:56.867Z,41.72
2019-01-17T18:54:00.801Z,41.97
2019-01-17T18:59:04.562Z,41.92
2019-01-17T19:04:08.347Z,41.44
2019-01-17T19:09:12.121Z,41.44
2019-01-17T19:14:15.886Z,41.30
2019-01-17T19:19:19.664Z,41.30
2019-01-17T19:24:23.464Z,41.31
2019-01-17T19:29:27.263Z,40.84
2019-01-17T19:34:31.066Z,40.84
2019-01-17T19:39:34.835Z,40.88
2019-01-17T19:44:38.618Z,41.37
2019-01-17T19:49:42.396Z,41.06
2019-01-17T19:54:46.194Z,40.95
2019-01-17T19:59:50.805Z,41.50
2019-01-17T20:04:54.751Z,41.03
2019-01-17T20:09:59.889Z,41.03
2019-01-17T20:15:04.041Z,39.25
2019-01-17T20:20:09.612Z,40.06
2019-01-17T20:25:13.396Z,40.06
2019-01-17T20:30:19.433Z,40.54
2019-01-17T20:35:23.223Z,40.46
2019-01-17T20:40:27.004Z,40.93
2019-01-17T20:45:30.827Z,40.87
2019-01-17T20:50:35.120Z,41.60
2019-01-17T20:55:38.920Z,41.67
2019-01-17T21:01:26.249Z,41.67
2019-01-17T21:06:30.074Z,42.11
2019-01-17T21:11:33.937Z,42.07
2019-01-17T21:16:37.722Z,42.84
2019-01-17T21:21:41.502Z,42.39
2019-01-17T21:26:45.302Z,42.39
2019-01-17T21:31:49.092Z,42.21
2019-01-17T21:36:52.920Z,42.53
2019-01-17T21:41:56.688Z,42.68
2019-01-17T21:47:00.493Z,42.96
2019-01-17T21:52:04.310Z,42.54
2019-01-17T21:57:08.088Z,42.64
2019-01-17T22:02:11.854Z,42.67
2019-01-17T22:07:15.652Z,42.67
2019-01-17T22:12:19.433Z,43.00
2019-01-17T22:17:23.216Z,42.94
2019-01-17T22:22:26.976Z,43.47
2019-01-17T22:27:30.776Z,43.25
2019-01-17T22:32:34.542Z,42.66
2019-01-17T22:37:38.324Z,43.34
2019-01-17T22:42:42.106Z,42.86
2019-01-17T22:47:45.955Z,42.86
2019-01-17T22:52:49.905Z,43.13
2019-01-17T22:57:53.668Z,42.96
2019-01-17T23:02:57.444Z,43.17
2019-01-17T23:08:01.268Z,42.91
2019-01-17T23:13:05.061Z,43.29
2019-01-17T23:18:08.937Z,43.22
2019-01-17T23:23:12.740Z,42.66
2019-01-17T23:28:16.812Z,42.77
2019-01-17T23:33:20.591Z,43.05
2019-01-17T23:38:24.353Z,43.05
2019-01-17T23:43:28.115Z,42.19
2019-01-17T23:48:31.928Z,41.88
2019-01-17T23:53:35.695Z,41.41
2019-01-17T23:58:39.480Z,42.28
